Time;durP1;ratioP1;P1;durP2;ratioP2;P2;SDS_P1;SDS_P2;PMS_P1;PMS_P2;Temp;Humidity;BMP_temperature;BMP_pressure;BME280_temperature;BME280_humidity;BME280_pressure;Samples;Min_cycle;Max_cycle;Signal;HPM_P1;HPM_P2
2021/12/11 00:00:36;;;;;;;3.35;2.85;;;;;;;;;;4960122;28;20039;-84
2021/12/11 00:03:14;;;;;;;3.30;3.00;;;;;;;;;;4960544;28;20033;-84
2021/12/11 00:05:41;;;;;;;4.63;2.88;;;;;;;;;;4962724;29;20031;-84
2021/12/11 00:08:10;;;;;;;3.00;2.67;;;;;;;;;;4961934;28;20046;-85
2021/12/11 00:10:39;;;;;;;3.92;2.90;;;;;;;;;;4961563;29;20027;-86
2021/12/11 00:13:07;;;;;;;4.15;3.05;;;;;;;;;;4962042;28;20038;-86
2021/12/11 00:15:35;;;;;;;3.45;3.15;;;;;;;;;;4958871;28;20054;-85
2021/12/11 00:18:20;;;;;;;3.50;3.20;;;;;;;;;;4959538;28;20050;-84
2021/12/11 00:20:58;;;;;;;6.30;3.15;;;;;;;;;;4959993;28;20023;-84
2021/12/11 00:23:35;;;;;;;3.25;2.97;;;;;;;;;;4960199;28;20035;-85
2021/12/11 00:26:01;;;;;;;6.45;3.45;;;;;;;;;;4960584;28;20368;-85
2021/12/11 00:28:27;;;;;;;3.95;3.65;;;;;;;;;;4959159;28;20038;-84
2021/12/11 00:30:53;;;;;;;5.70;4.05;;;;;;;;;;4959565;28;20027;-85
2021/12/11 00:33:24;;;;;;;4.75;3.90;;;;;;;;;;4958172;28;20106;-85
2021/12/11 00:35:51;;;;;;;5.80;4.60;;;;;;;;;;4941805;29;20031;-84
2021/12/11 00:38:18;;;;;;;7.88;5.25;;;;;;;;;;4958491;28;20031;-86
2021/12/11 00:40:46;;;;;;;6.88;5.10;;;;;;;;;;4966662;28;20548;-85
2021/12/11 00:43:16;;;;;;;5.47;4.22;;;;;;;;;;4960771;28;20039;-84
2021/12/11 00:45:43;;;;;;;6.13;4.43;;;;;;;;;;4959394;28;20027;-84
2021/12/11 00:48:13;;;;;;;5.97;4.22;;;;;;;;;;4960105;29;20031;-84
2021/12/11 00:50:48;;;;;;;5.32;3.97;;;;;;;;;;4971007;29;20050;-84
2021/12/11 00:53:16;;;;;;;5.72;4.65;;;;;;;;;;4975782;28;20035;-85
2021/12/11 00:55:49;;;;;;;6.32;4.80;;;;;;;;;;4975799;28;20079;-89
2021/12/11 00:58:15;;;;;;;4.97;4.13;;;;;;;;;;4975478;28;20043;-88
2021/12/11 01:00:57;;;;;;;5.53;4.65;;;;;;;;;;4958984;28;20027;-84
2021/12/11 01:03:26;;;;;;;5.22;4.53;;;;;;;;;;4958109;28;20384;-83
2021/12/11 01:05:53;;;;;;;6.25;4.38;;;;;;;;;;4975072;28;20016;-85
2021/12/11 01:08:40;;;;;;;5.97;4.18;;;;;;;;;;4985090;28;20031;-87
2021/12/11 01:11:06;;;;;;;6.35;4.63;;;;;;;;;;4997792;28;20060;-88
2021/12/11 01:13:33;;;;;;;5.80;4.63;;;;;;;;;;4968509;28;20026;-88
2021/12/11 01:16:05;;;;;;;7.03;5.53;;;;;;;;;;4958794;28;20019;-86
2021/12/11 01:18:36;;;;;;;6.20;4.95;;;;;;;;;;4943451;29;20028;-84
2021/12/11 01:21:06;;;;;;;;;;;;;;;;;;4959420;28;20027;-86
2021/12/11 01:26:08;;;;;;;6.72;4.97;;;;;;;;;;4962222;28;20487;-86
2021/12/11 01:28:34;;;;;;;6.35;4.95;;;;;;;;;;4946286;29;20024;-84
2021/12/11 01:31:01;;;;;;;6.32;5.03;;;;;;;;;;4947227;28;20032;-82
2021/12/11 01:33:27;;;;;;;7.68;5.82;;;;;;;;;;4974316;28;20083;-86
2021/12/11 01:35:53;;;;;;;7.45;6.00;;;;;;;;;;4966764;28;20031;-84
2021/12/11 01:38:22;;;;;;;8.45;6.30;;;;;;;;;;4963511;28;20053;-84
2021/12/11 01:40:49;;;;;;;8.23;6.32;;;;;;;;;;4965044;28;20038;-84
2021/12/11 01:43:16;;;;;;;8.15;6.57;;;;;;;;;;4967403;28;20035;-86
2021/12/11 01:45:44;;;;;;;10.65;6.70;;;;;;;;;;4968833;29;20028;-84
2021/12/11 01:48:10;;;;;;;10.32;7.40;;;;;;;;;;4967671;29;20061;-85
2021/12/11 01:50:39;;;;;;;10.52;6.57;;;;;;;;;;4965942;29;20031;-85
2021/12/11 01:53:07;;;;;;;9.85;7.38;;;;;;;;;;4966408;28;20023;-85
2021/12/11 01:55:38;;;;;;;12.40;8.05;;;;;;;;;;4947660;28;20108;-85
2021/12/11 01:58:07;;;;;;;11.75;7.55;;;;;;;;;;4988944;22;20669;-82
2021/12/11 02:00:33;;;;;;;15.65;8.93;;;;;;;;;;4988120;28;20035;-85
2021/12/11 02:03:03;;;;;;;10.05;7.10;;;;;;;;;;4986907;28;20094;-85
2021/12/11 02:11:49;;;;;;;19.95;8.15;;;;;;;;;;5016250;28;20030;-86
2021/12/11 02:14:24;;;;;;;10.43;7.50;;;;;;;;;;4965295;28;20039;-86
2021/12/11 02:16:55;;;;;;;11.50;8.30;;;;;;;;;;4963157;28;20550;-85
2021/12/11 02:19:51;;;;;;;14.85;8.77;;;;;;;;;;4960120;28;20032;-84
2021/12/11 02:22:28;;;;;;;11.45;7.97;;;;;;;;;;4962020;28;20054;-84
2021/12/11 02:24:59;;;;;;;12.23;8.30;;;;;;;;;;4961598;28;20027;-86
2021/12/11 02:27:30;;;;;;;12.05;8.73;;;;;;;;;;4960633;28;20487;-84
2021/12/11 02:29:56;;;;;;;12.95;8.95;;;;;;;;;;4965618;28;20099;-84
2021/12/11 02:32:30;;;;;;;11.95;8.05;;;;;;;;;;4960311;28;20027;-85
2021/12/11 02:34:59;;;;;;;12.57;8.90;;;;;;;;;;4959145;29;20036;-85
2021/12/11 02:37:34;;;;;;;12.55;8.07;;;;;;;;;;4960548;29;20031;-84
2021/12/11 02:40:04;;;;;;;12.35;9.10;;;;;;;;;;4967170;29;20062;-85
2021/12/11 02:42:30;;;;;;;12.30;8.68;;;;;;;;;;4967415;28;20046;-86
2021/12/11 02:44:56;;;;;;;15.77;8.95;;;;;;;;;;4968569;28;20039;-86
2021/12/11 02:47:34;;;;;;;11.48;8.35;;;;;;;;;;4968286;28;20038;-86
2021/12/11 02:50:02;;;;;;;13.77;9.30;;;;;;;;;;4971467;28;20035;-86
2021/12/11 02:52:37;;;;;;;14.43;10.18;;;;;;;;;;4997632;28;20099;-85
2021/12/11 02:55:22;;;;;;;12.38;8.45;;;;;;;;;;4973046;28;20055;-85
2021/12/11 02:57:50;;;;;;;16.92;10.05;;;;;;;;;;4970133;28;20035;-83
2021/12/11 03:00:23;;;;;;;13.88;9.13;;;;;;;;;;4976034;28;20059;-85
2021/12/11 03:02:59;;;;;;;13.23;9.18;;;;;;;;;;4985408;28;20039;-86
2021/12/11 03:05:34;;;;;;;15.82;9.45;;;;;;;;;;4982368;28;20027;-84
2021/12/11 03:08:01;;;;;;;14.55;9.00;;;;;;;;;;4957679;28;20542;-83
2021/12/11 03:10:27;;;;;;;14.57;9.13;;;;;;;;;;4963439;28;20030;-85
2021/12/11 03:12:55;;;;;;;13.88;9.60;;;;;;;;;;4956423;28;20032;-85
2021/12/11 03:15:21;;;;;;;14.70;9.10;;;;;;;;;;4937869;28;20030;-84
2021/12/11 03:17:47;;;;;;;12.48;8.98;;;;;;;;;;4944297;28;20505;-84
2021/12/11 03:20:15;;;;;;;13.70;9.73;;;;;;;;;;4959215;28;20084;-85
2021/12/11 03:22:43;;;;;;;12.80;8.73;;;;;;;;;;4957609;28;20037;-85
2021/12/11 03:25:12;;;;;;;13.18;9.30;;;;;;;;;;4958073;28;20106;-84
2021/12/11 03:27:39;;;;;;;15.95;9.70;;;;;;;;;;4964464;28;20026;-84
2021/12/11 03:30:07;;;;;;;14.68;9.18;;;;;;;;;;4975210;28;20108;-84
2021/12/11 03:32:33;;;;;;;13.20;9.25;;;;;;;;;;4970186;29;20027;-83
2021/12/11 03:34:59;;;;;;;14.45;10.00;;;;;;;;;;4972969;28;20028;-86
2021/12/11 03:37:25;;;;;;;13.35;9.23;;;;;;;;;;4974641;28;20020;-85
2021/12/11 03:39:52;;;;;;;16.73;10.25;;;;;;;;;;4960075;28;20038;-85
2021/12/11 03:42:31;;;;;;;15.48;9.98;;;;;;;;;;4957452;28;20421;-83
2021/12/11 03:44:58;;;;;;;17.27;10.57;;;;;;;;;;4957019;28;20030;-83
2021/12/11 03:47:26;;;;;;;15.02;10.40;;;;;;;;;;4957354;28;20054;-84
2021/12/11 03:49:52;;;;;;;14.30;9.60;;;;;;;;;;4957014;28;20035;-83
2021/12/11 03:52:19;;;;;;;15.52;9.88;;;;;;;;;;4957152;28;20031;-82
2021/12/11 03:54:47;;;;;;;15.40;10.30;;;;;;;;;;4956724;28;20035;-87
2021/12/11 03:57:15;;;;;;;16.35;9.63;;;;;;;;;;4957493;28;20084;-84
2021/12/11 03:59:47;;;;;;;15.30;10.48;;;;;;;;;;4957749;28;20039;-83
2021/12/11 04:02:14;;;;;;;16.48;10.75;;;;;;;;;;4956871;28;20028;-82
2021/12/11 04:04:42;;;;;;;16.38;10.98;;;;;;;;;;4956898;28;20455;-84
2021/12/11 04:07:10;;;;;;;16.02;10.63;;;;;;;;;;4955632;28;20027;-84
2021/12/11 04:09:37;;;;;;;16.08;10.55;;;;;;;;;;4956640;28;20451;-83
2021/12/11 04:12:03;;;;;;;14.60;9.52;;;;;;;;;;4956929;28;20086;-83
2021/12/11 04:14:31;;;;;;;17.75;11.15;;;;;;;;;;4956311;28;20030;-83
2021/12/11 04:16:58;;;;;;;16.98;11.73;;;;;;;;;;4955928;28;20076;-82
2021/12/11 04:19:24;;;;;;;17.50;10.70;;;;;;;;;;4937736;28;20039;-86
2021/12/11 04:21:51;;;;;;;17.13;11.48;;;;;;;;;;4937942;28;20024;-82
2021/12/11 04:24:18;;;;;;;18.92;11.90;;;;;;;;;;4954784;28;20039;-83
2021/12/11 04:26:45;;;;;;;18.00;11.93;;;;;;;;;;4957015;29;20027;-82
2021/12/11 04:29:11;;;;;;;16.73;11.02;;;;;;;;;;4956673;28;20032;-83
2021/12/11 04:31:41;;;;;;;18.90;11.88;;;;;;;;;;4956608;28;20039;-85
2021/12/11 04:34:09;;;;;;;18.40;12.02;;;;;;;;;;4957412;28;20019;-85
2021/12/11 04:36:38;;;;;;;22.23;13.20;;;;;;;;;;4955917;28;20042;-85
2021/12/11 04:39:08;;;;;;;18.20;12.18;;;;;;;;;;4957507;28;20087;-81
2021/12/11 04:41:42;;;;;;;20.25;12.45;;;;;;;;;;4955683;29;20030;-85
2021/12/11 04:44:10;;;;;;;21.73;12.57;;;;;;;;;;4956411;28;20042;-86
2021/12/11 04:46:36;;;;;;;18.25;12.13;;;;;;;;;;4955536;28;20380;-85
2021/12/11 04:49:14;;;;;;;20.15;12.63;;;;;;;;;;4955017;28;20122;-85
2021/12/11 04:52:02;;;;;;;18.67;12.82;;;;;;;;;;4956657;28;20364;-85
2021/12/11 05:10:11;;;;;;;19.85;12.95;;;;;;;;;;4956328;29;20046;-85
2021/12/11 05:12:37;;;;;;;20.88;13.05;;;;;;;;;;4961121;28;20015;-86
2021/12/11 05:15:07;;;;;;;21.08;12.88;;;;;;;;;;4970230;28;20030;-85
2021/12/11 05:17:34;;;;;;;20.83;13.13;;;;;;;;;;4950195;28;20036;-85
2021/12/11 05:20:00;;;;;;;20.60;13.52;;;;;;;;;;4937422;28;20046;-85
2021/12/11 05:22:26;;;;;;;21.17;13.43;;;;;;;;;;4937046;28;20027;-85
2021/12/11 05:24:54;;;;;;;24.38;14.10;;;;;;;;;;4935093;28;20028;-85
2021/12/11 05:27:21;;;;;;;22.63;13.60;;;;;;;;;;4936174;28;20035;-83
2021/12/11 05:29:47;;;;;;;20.10;12.25;;;;;;;;;;4962906;28;20095;-84
2021/12/11 05:32:15;;;;;;;20.20;12.68;;;;;;;;;;4965658;28;20027;-85
2021/12/11 05:34:42;;;;;;;19.52;12.82;;;;;;;;;;4954534;28;20031;-85
2021/12/11 05:37:08;;;;;;;23.27;13.50;;;;;;;;;;4956043;28;20049;-84
2021/12/11 05:39:34;;;;;;;20.20;13.23;;;;;;;;;;4955313;28;20487;-84
2021/12/11 05:42:01;;;;;;;22.02;13.98;;;;;;;;;;4954033;28;20031;-83
2021/12/11 05:44:27;;;;;;;22.95;14.60;;;;;;;;;;4955159;28;20312;-83
2021/12/11 05:46:54;;;;;;;26.00;15.45;;;;;;;;;;4953675;28;20038;-84
2021/12/11 05:49:20;;;;;;;22.88;14.27;;;;;;;;;;4955499;28;20165;-85
2021/12/11 05:51:48;;;;;;;24.27;14.75;;;;;;;;;;4955266;28;20027;-83
2021/12/11 05:54:17;;;;;;;21.88;14.15;;;;;;;;;;4954078;28;20057;-84
2021/12/11 05:56:44;;;;;;;26.65;17.08;;;;;;;;;;4958440;28;20027;-85
2021/12/11 05:59:12;;;;;;;28.30;17.33;;;;;;;;;;4957479;28;20035;-84
2021/12/11 06:01:39;;;;;;;25.13;15.20;;;;;;;;;;4958651;29;20027;-84
2021/12/11 06:04:27;;;;;;;26.90;16.48;;;;;;;;;;4957491;28;20020;-84
2021/12/11 06:06:54;;;;;;;22.65;14.50;;;;;;;;;;4958225;28;20024;-84
2021/12/11 06:09:21;;;;;;;23.60;15.35;;;;;;;;;;4957655;28;20058;-84
2021/12/11 06:11:49;;;;;;;24.10;15.38;;;;;;;;;;4953307;28;20024;-84
2021/12/11 06:14:16;;;;;;;29.80;16.55;;;;;;;;;;4939322;28;20103;-83
2021/12/11 06:16:43;;;;;;;25.33;14.95;;;;;;;;;;4938370;28;20028;-84
2021/12/11 06:19:09;;;;;;;24.67;15.27;;;;;;;;;;4954592;28;20032;-84
2021/12/11 06:21:36;;;;;;;27.15;16.70;;;;;;;;;;4957346;28;20019;-83
2021/12/11 06:24:03;;;;;;;27.58;16.35;;;;;;;;;;4957394;28;20043;-84
2021/12/11 06:26:29;;;;;;;25.77;16.35;;;;;;;;;;4957647;28;20027;-84
2021/12/11 06:28:55;;;;;;;29.13;18.67;;;;;;;;;;4958165;28;20395;-83
2021/12/11 06:31:21;;;;;;;28.33;16.95;;;;;;;;;;4955754;28;20031;-82
2021/12/11 06:33:48;;;;;;;29.23;18.13;;;;;;;;;;4957484;28;20030;-85
2021/12/11 06:36:15;;;;;;;28.77;16.63;;;;;;;;;;4958155;28;20112;-84
2021/12/11 06:38:42;;;;;;;29.45;17.27;;;;;;;;;;4955747;29;20042;-84
2021/12/11 06:41:09;;;;;;;28.23;18.20;;;;;;;;;;4958780;28;20058;-84
2021/12/11 06:43:35;;;;;;;27.90;17.23;;;;;;;;;;4956951;28;20152;-86
2021/12/11 06:46:01;;;;;;;28.83;16.65;;;;;;;;;;4958840;28;20038;-83
2021/12/11 06:48:28;;;;;;;29.73;16.75;;;;;;;;;;4958660;28;20034;-84
2021/12/11 06:50:55;;;;;;;31.70;17.40;;;;;;;;;;4958600;28;20031;-84
2021/12/11 06:53:27;;;;;;;32.45;18.08;;;;;;;;;;4958108;28;20027;-86
2021/12/11 06:55:53;;;;;;;30.80;17.30;;;;;;;;;;4958170;28;20028;-84
2021/12/11 06:58:19;;;;;;;33.40;18.65;;;;;;;;;;4957984;28;20037;-84
2021/12/11 07:00:45;;;;;;;33.92;19.02;;;;;;;;;;4962890;28;20039;-84
2021/12/11 07:03:11;;;;;;;35.58;19.00;;;;;;;;;;4977378;28;20080;-83
2021/12/11 07:05:37;;;;;;;30.58;18.55;;;;;;;;;;4975358;28;20046;-85
2021/12/11 07:08:05;;;;;;;34.03;19.70;;;;;;;;;;4960674;28;20491;-85
2021/12/11 07:10:31;;;;;;;32.63;19.50;;;;;;;;;;4958167;28;20058;-83
2021/12/11 07:12:57;;;;;;;33.40;18.67;;;;;;;;;;4966066;28;20038;-85
2021/12/11 07:15:24;;;;;;;32.67;19.05;;;;;;;;;;4957803;28;20027;-84
2021/12/11 07:17:50;;;;;;;32.47;19.35;;;;;;;;;;4957681;28;20035;-85
2021/12/11 07:20:16;;;;;;;32.22;19.67;;;;;;;;;;4956077;28;20430;-85
2021/12/11 07:22:42;;;;;;;37.60;21.08;;;;;;;;;;4958128;28;20035;-86
2021/12/11 07:25:15;;;;;;;32.60;19.55;;;;;;;;;;4958113;28;20027;-84
2021/12/11 07:27:41;;;;;;;35.03;19.75;;;;;;;;;;4966076;28;20027;-86
2021/12/11 07:30:08;;;;;;;36.97;20.95;;;;;;;;;;4967324;28;20035;-85
2021/12/11 07:32:34;;;;;;;32.85;19.58;;;;;;;;;;4959101;28;20019;-86
2021/12/11 07:35:00;;;;;;;36.00;20.02;;;;;;;;;;4958249;28;20028;-85
2021/12/11 07:37:26;;;;;;;30.95;18.98;;;;;;;;;;4956692;28;20030;-88
2021/12/11 07:39:52;;;;;;;34.92;19.65;;;;;;;;;;4958176;28;20482;-86
2021/12/11 07:42:18;;;;;;;35.92;20.73;;;;;;;;;;4957917;28;20038;-86
2021/12/11 07:44:44;;;;;;;41.45;20.30;;;;;;;;;;4957545;28;20039;-85
2021/12/11 07:47:10;;;;;;;35.67;20.02;;;;;;;;;;4967439;28;20054;-86
2021/12/11 07:49:36;;;;;;;36.22;20.30;;;;;;;;;;4963114;28;20028;-83
2021/12/11 07:52:04;;;;;;;35.05;18.92;;;;;;;;;;4957064;28;20034;-85
2021/12/11 07:54:30;;;;;;;34.47;18.75;;;;;;;;;;4955632;29;20158;-85
2021/12/11 07:56:56;;;;;;;31.45;18.77;;;;;;;;;;4956375;28;20023;-84
2021/12/11 07:59:22;;;;;;;31.95;18.38;;;;;;;;;;4955016;28;20031;-83
2021/12/11 08:01:49;;;;;;;31.02;17.30;;;;;;;;;;4954881;29;20033;-84
2021/12/11 08:04:15;;;;;;;33.95;17.95;;;;;;;;;;4956066;28;20023;-83
2021/12/11 08:06:41;;;;;;;33.72;19.95;;;;;;;;;;4956882;28;20095;-84
2021/12/11 08:09:10;;;;;;;33.40;19.77;;;;;;;;;;4957703;28;20019;-84
2021/12/11 08:11:36;;;;;;;29.08;17.20;;;;;;;;;;4955532;28;20042;-84
2021/12/11 08:14:03;;;;;;;34.78;18.85;;;;;;;;;;4956709;28;20395;-83
2021/12/11 08:16:33;;;;;;;33.15;18.02;;;;;;;;;;4954848;28;20588;-83
2021/12/11 08:19:03;;;;;;;30.38;17.10;;;;;;;;;;4955792;28;20023;-84
2021/12/11 08:21:29;;;;;;;34.20;19.37;;;;;;;;;;4956823;28;20051;-82
2021/12/11 08:23:56;;;;;;;29.73;16.00;;;;;;;;;;4954776;28;20512;-82
2021/12/11 08:26:24;;;;;;;36.58;19.77;;;;;;;;;;4956112;28;20034;-85
2021/12/11 08:28:51;;;;;;;39.35;20.70;;;;;;;;;;4956522;28;20027;-84
2021/12/11 08:31:18;;;;;;;36.83;20.08;;;;;;;;;;4956377;28;20069;-83
2021/12/11 08:33:45;;;;;;;39.00;21.13;;;;;;;;;;4956007;28;20407;-84
2021/12/11 08:36:11;;;;;;;34.50;17.90;;;;;;;;;;4956245;28;20027;-84
2021/12/11 08:38:37;;;;;;;34.28;18.80;;;;;;;;;;4955162;28;20047;-85
2021/12/11 08:41:06;;;;;;;29.55;16.58;;;;;;;;;;4955083;28;20027;-84
2021/12/11 08:43:32;;;;;;;32.60;17.20;;;;;;;;;;4954869;29;20437;-84
2021/12/11 08:46:09;;;;;;;27.80;14.48;;;;;;;;;;4955731;28;20027;-82
2021/12/11 08:48:36;;;;;;;26.30;15.27;;;;;;;;;;4955406;28;20526;-84
2021/12/11 08:51:05;;;;;;;26.15;15.60;;;;;;;;;;4953918;28;20096;-82
2021/12/11 08:53:32;;;;;;;25.88;14.85;;;;;;;;;;4955300;28;20502;-84
2021/12/11 08:55:58;;;;;;;30.10;14.35;;;;;;;;;;4956143;28;20027;-86
2021/12/11 08:58:26;;;;;;;27.83;15.25;;;;;;;;;;4960939;28;20024;-82
2021/12/11 09:00:56;;;;;;;23.83;14.48;;;;;;;;;;4952603;28;20028;-84
2021/12/11 09:03:26;;;;;;;23.67;13.43;;;;;;;;;;4946990;29;20099;-83
2021/12/11 09:06:01;;;;;;;21.58;13.18;;;;;;;;;;4948140;29;20024;-84
2021/12/11 09:08:35;;;;;;;25.10;14.63;;;;;;;;;;4952285;28;20088;-84
2021/12/11 09:11:04;;;;;;;25.52;14.00;;;;;;;;;;4953478;28;20101;-83
2021/12/11 09:13:32;;;;;;;22.38;12.98;;;;;;;;;;4966686;28;20107;-85
2021/12/11 09:16:19;;;;;;;20.30;12.18;;;;;;;;;;4945890;28;20038;-86
2021/12/11 09:18:48;;;;;;;21.45;12.77;;;;;;;;;;4955113;29;20097;-85
2021/12/11 09:21:26;;;;;;;19.40;12.55;;;;;;;;;;4954147;29;20041;-85
2021/12/11 09:24:04;;;;;;;19.17;11.73;;;;;;;;;;4953623;28;20062;-85
2021/12/11 09:26:39;;;;;;;18.13;11.85;;;;;;;;;;4963486;29;20028;-86
2021/12/11 09:29:05;;;;;;;19.92;11.38;;;;;;;;;;4958246;28;20091;-86
2021/12/11 09:31:42;;;;;;;14.80;9.48;;;;;;;;;;4961058;28;20058;-84
2021/12/11 09:34:11;;;;;;;16.30;10.75;;;;;;;;;;4959247;28;20084;-85
2021/12/11 09:36:39;;;;;;;17.55;9.50;;;;;;;;;;4959826;28;20028;-86
2021/12/11 09:39:11;;;;;;;13.98;9.43;;;;;;;;;;4958295;28;20099;-84
2021/12/11 09:41:37;;;;;;;16.48;10.45;;;;;;;;;;4967085;28;20023;-85
2021/12/11 09:44:03;;;;;;;17.75;10.68;;;;;;;;;;4958267;28;20059;-84
2021/12/11 09:46:31;;;;;;;17.42;11.75;;;;;;;;;;4962719;28;20367;-85
2021/12/11 09:48:57;;;;;;;17.92;10.65;;;;;;;;;;4966884;28;20023;-85
2021/12/11 09:51:28;;;;;;;15.63;10.25;;;;;;;;;;4958428;28;20035;-83
2021/12/11 09:53:59;;;;;;;16.02;10.05;;;;;;;;;;4962882;28;20475;-84
2021/12/11 09:56:32;;;;;;;13.73;9.00;;;;;;;;;;4957158;28;20034;-83
2021/12/11 09:59:00;;;;;;;14.07;9.68;;;;;;;;;;4981900;22;20051;-86
2021/12/11 10:01:28;;;;;;;15.68;9.55;;;;;;;;;;4965147;28;20027;-84
2021/12/11 10:03:58;;;;;;;14.93;9.90;;;;;;;;;;4967362;28;20035;-84
2021/12/11 10:06:40;;;;;;;13.77;9.98;;;;;;;;;;4967483;28;20107;-84
2021/12/11 10:09:17;;;;;;;15.98;9.35;;;;;;;;;;4963329;28;20082;-84
2021/12/11 10:11:44;;;;;;;14.73;8.93;;;;;;;;;;4960761;28;20022;-84
2021/12/11 10:14:14;;;;;;;13.77;8.85;;;;;;;;;;5013994;28;20029;-83
2021/12/11 10:16:44;;;;;;;15.10;8.90;;;;;;;;;;4965390;28;20031;-84
2021/12/11 10:19:11;;;;;;;15.30;9.73;;;;;;;;;;4975954;28;20027;-81
2021/12/11 10:21:40;;;;;;;13.57;8.77;;;;;;;;;;4951791;28;20055;-84
2021/12/11 10:24:12;;;;;;;17.15;9.45;;;;;;;;;;4959211;29;20131;-84
2021/12/11 10:26:38;;;;;;;13.65;8.65;;;;;;;;;;4947035;28;20395;-84
2021/12/11 10:29:07;;;;;;;15.38;10.18;;;;;;;;;;4958186;28;20035;-84
2021/12/11 10:31:43;;;;;;;15.25;9.52;;;;;;;;;;4957953;29;20482;-82
2021/12/11 10:34:12;;;;;;;15.05;9.40;;;;;;;;;;4957640;28;20075;-83
2021/12/11 10:36:40;;;;;;;14.30;8.65;;;;;;;;;;4957482;28;20024;-85
2021/12/11 10:39:09;;;;;;;13.10;8.55;;;;;;;;;;4957890;28;20023;-84
2021/12/11 10:41:36;;;;;;;16.95;9.98;;;;;;;;;;4957386;29;20023;-83
2021/12/11 10:44:03;;;;;;;13.55;8.10;;;;;;;;;;4955914;28;20054;-86
2021/12/11 10:46:32;;;;;;;11.23;7.78;;;;;;;;;;4958432;28;20261;-83
2021/12/11 10:48:58;;;;;;;12.25;8.32;;;;;;;;;;4965302;29;20027;-85
2021/12/11 10:51:29;;;;;;;11.55;7.55;;;;;;;;;;4966373;28;20024;-85
2021/12/11 10:53:56;;;;;;;14.50;7.90;;;;;;;;;;4957560;28;20032;-83
2021/12/11 10:56:22;;;;;;;10.63;6.95;;;;;;;;;;4972103;28;20027;-84
2021/12/11 10:58:52;;;;;;;9.65;6.82;;;;;;;;;;4960106;28;20035;-85
2021/12/11 11:01:27;;;;;;;11.18;7.55;;;;;;;;;;4958316;28;20082;-83
2021/12/11 11:03:56;;;;;;;10.77;7.57;;;;;;;;;;4940802;29;20039;-86
2021/12/11 11:06:22;;;;;;;12.13;7.55;;;;;;;;;;4941881;28;20487;-83
2021/12/11 11:08:49;;;;;;;12.77;8.23;;;;;;;;;;4959683;28;20023;-87
2021/12/11 11:11:19;;;;;;;11.02;7.45;;;;;;;;;;4953091;29;20032;-87
2021/12/11 11:13:45;;;;;;;16.88;9.75;;;;;;;;;;4966249;29;20035;-86
2021/12/11 11:16:12;;;;;;;13.85;8.57;;;;;;;;;;4960470;28;20027;-84
2021/12/11 11:18:38;;;;;;;14.35;9.73;;;;;;;;;;4959334;28;20042;-83
2021/12/11 11:21:04;;;;;;;13.20;8.63;;;;;;;;;;4957558;29;20042;-84
2021/12/11 11:23:30;;;;;;;17.48;9.38;;;;;;;;;;4956653;28;20023;-84
2021/12/11 11:25:57;;;;;;;13.88;8.40;;;;;;;;;;4977917;28;20038;-83
2021/12/11 11:28:26;;;;;;;15.85;8.63;;;;;;;;;;4977151;28;20116;-83
2021/12/11 11:30:58;;;;;;;14.65;8.82;;;;;;;;;;4960201;28;20169;-84
2021/12/11 11:33:25;;;;;;;13.73;9.52;;;;;;;;;;4967066;28;20015;-86
2021/12/11 11:35:52;;;;;;;14.60;9.63;;;;;;;;;;4967238;28;20019;-86
2021/12/11 11:38:22;;;;;;;11.38;8.45;;;;;;;;;;4966494;28;20037;-85
2021/12/11 11:40:50;;;;;;;13.68;9.25;;;;;;;;;;4964250;28;20447;-85
2021/12/11 11:43:17;;;;;;;15.23;9.50;;;;;;;;;;4957362;28;20036;-85
2021/12/11 11:45:43;;;;;;;14.88;9.50;;;;;;;;;;4956783;28;20039;-86
2021/12/11 11:48:10;;;;;;;13.05;9.13;;;;;;;;;;4956502;29;20043;-84
2021/12/11 11:50:39;;;;;;;15.35;10.77;;;;;;;;;;4957458;28;20027;-83
2021/12/11 11:53:06;;;;;;;14.32;9.23;;;;;;;;;;4956186;28;20023;-85
2021/12/11 11:55:41;;;;;;;15.35;9.15;;;;;;;;;;4957461;29;20479;-84
2021/12/11 11:58:07;;;;;;;14.23;9.70;;;;;;;;;;4954545;28;20042;-85
2021/12/11 12:00:41;;;;;;;15.52;10.43;;;;;;;;;;4956707;28;20035;-84
2021/12/11 12:03:07;;;;;;;17.25;10.90;;;;;;;;;;4955779;28;20027;-86
2021/12/11 12:05:36;;;;;;;17.05;10.23;;;;;;;;;;4956832;29;20096;-85
2021/12/11 12:08:03;;;;;;;16.33;10.38;;;;;;;;;;4955317;28;20453;-84
2021/12/11 12:10:29;;;;;;;19.52;10.50;;;;;;;;;;4953946;29;20023;-82
2021/12/11 12:12:55;;;;;;;18.65;11.73;;;;;;;;;;4956077;29;20098;-84
2021/12/11 12:15:28;;;;;;;25.20;12.68;;;;;;;;;;4969449;28;20036;-86
2021/12/11 12:17:54;;;;;;;17.25;10.43;;;;;;;;;;4974379;28;20035;-87
2021/12/11 12:20:21;;;;;;;16.73;10.32;;;;;;;;;;4963741;29;20061;-86
2021/12/11 12:22:48;;;;;;;19.95;11.98;;;;;;;;;;4957558;29;20073;-86
2021/12/11 12:25:14;;;;;;;15.98;10.13;;;;;;;;;;4957618;28;20510;-86
2021/12/11 12:27:42;;;;;;;17.85;11.00;;;;;;;;;;4957908;29;20572;-85
2021/12/11 12:30:12;;;;;;;21.65;12.23;;;;;;;;;;4954842;28;20039;-84
2021/12/11 12:32:38;;;;;;;21.65;12.63;;;;;;;;;;4953287;28;20475;-82
2021/12/11 12:35:10;;;;;;;20.35;12.75;;;;;;;;;;4954090;29;20107;-84
2021/12/11 12:37:36;;;;;;;17.60;11.60;;;;;;;;;;4970320;28;20348;-87
2021/12/11 12:40:06;;;;;;;22.77;12.95;;;;;;;;;;4955403;28;20031;-85
2021/12/11 12:42:36;;;;;;;21.17;12.98;;;;;;;;;;4955665;28;20127;-85
2021/12/11 12:45:08;;;;;;;22.92;12.90;;;;;;;;;;4954104;28;20051;-80
2021/12/11 12:47:36;;;;;;;22.75;13.77;;;;;;;;;;4956378;29;20027;-84
2021/12/11 12:50:05;;;;;;;20.17;11.65;;;;;;;;;;4955894;28;20035;-84
2021/12/11 12:52:34;;;;;;;23.27;13.55;;;;;;;;;;4954417;29;20074;-85
2021/12/11 12:55:01;;;;;;;24.33;14.23;;;;;;;;;;4935070;29;20032;-84
2021/12/11 12:57:38;;;;;;;30.08;16.80;;;;;;;;;;4955448;28;20055;-83
2021/12/11 13:00:03;;;;;;;26.15;13.93;;;;;;;;;;4954650;29;20574;-83
2021/12/11 13:02:31;;;;;;;28.10;14.75;;;;;;;;;;4954086;28;20067;-85
2021/12/11 13:05:04;;;;;;;27.42;14.95;;;;;;;;;;4954107;29;20028;-83
2021/12/11 13:07:30;;;;;;;25.80;15.07;;;;;;;;;;4953701;28;20043;-83
2021/12/11 13:09:59;;;;;;;28.50;15.32;;;;;;;;;;4952977;28;20074;-83
2021/12/11 13:12:33;;;;;;;31.35;16.52;;;;;;;;;;4954510;28;20027;-82
2021/12/11 13:15:02;;;;;;;26.52;15.23;;;;;;;;;;4955034;28;20494;-84
2021/12/11 13:17:30;;;;;;;31.25;14.40;;;;;;;;;;4955867;29;20023;-85
2021/12/11 13:19:58;;;;;;;25.67;14.50;;;;;;;;;;4954567;29;20035;-84
2021/12/11 13:22:30;;;;;;;30.35;15.25;;;;;;;;;;4955145;29;20047;-83
2021/12/11 13:24:59;;;;;;;24.17;13.93;;;;;;;;;;4953673;29;20038;-86
2021/12/11 13:27:26;;;;;;;24.83;13.98;;;;;;;;;;4952893;28;20415;-84
2021/12/11 13:29:54;;;;;;;25.83;15.32;;;;;;;;;;4955038;28;20032;-85
2021/12/11 13:32:25;;;;;;;26.35;15.20;;;;;;;;;;4954404;29;20046;-84
2021/12/11 13:34:52;;;;;;;24.80;14.90;;;;;;;;;;4954349;29;20028;-84
2021/12/11 13:37:19;;;;;;;28.60;15.13;;;;;;;;;;4958106;29;20043;-85
2021/12/11 13:39:47;;;;;;;32.22;17.45;;;;;;;;;;4954608;28;20043;-86
2021/12/11 13:42:19;;;;;;;28.23;15.40;;;;;;;;;;4953091;29;20042;-85
2021/12/11 13:44:46;;;;;;;23.45;14.05;;;;;;;;;;4953104;28;20184;-85
2021/12/11 13:47:14;;;;;;;38.20;20.13;;;;;;;;;;4957174;28;20110;-84
2021/12/11 13:49:41;;;;;;;29.80;17.02;;;;;;;;;;4960859;28;20571;-85
2021/12/11 13:52:07;;;;;;;31.55;16.52;;;;;;;;;;4955750;29;20038;-84
2021/12/11 13:54:35;;;;;;;27.20;15.18;;;;;;;;;;4955433;29;20027;-84
2021/12/11 13:57:04;;;;;;;25.63;16.05;;;;;;;;;;4955571;28;20031;-84
2021/12/11 13:59:30;;;;;;;25.40;14.90;;;;;;;;;;4960664;28;20035;-85
2021/12/11 14:01:57;;;;;;;25.27;14.95;;;;;;;;;;4952660;29;20035;-85
2021/12/11 14:04:24;;;;;;;25.10;15.18;;;;;;;;;;4954173;28;20019;-85
2021/12/11 14:06:58;;;;;;;23.38;14.02;;;;;;;;;;4953452;28;20035;-85
2021/12/11 14:09:26;;;;;;;25.10;14.60;;;;;;;;;;4936059;29;20079;-85
2021/12/11 14:11:52;;;;;;;26.98;13.35;;;;;;;;;;4952304;29;20023;-85
2021/12/11 14:14:19;;;;;;;21.73;13.35;;;;;;;;;;4960809;28;20023;-86
2021/12/11 14:16:47;;;;;;;23.20;13.52;;;;;;;;;;4969484;28;20066;-85
2021/12/11 14:19:14;;;;;;;22.05;12.77;;;;;;;;;;4958497;28;20019;-85
2021/12/11 14:21:40;;;;;;;21.75;13.20;;;;;;;;;;4957648;28;20027;-85
2021/12/11 14:24:07;;;;;;;22.60;13.07;;;;;;;;;;4957869;29;20023;-85
2021/12/11 14:26:34;;;;;;;24.27;12.90;;;;;;;;;;4957241;28;20126;-86
2021/12/11 14:29:01;;;;;;;26.73;13.80;;;;;;;;;;4960380;28;20034;-85
2021/12/11 14:31:28;;;;;;;23.48;13.50;;;;;;;;;;4956628;29;20430;-85
2021/12/11 14:33:54;;;;;;;22.98;12.93;;;;;;;;;;4958581;28;20036;-84
2021/12/11 14:36:21;;;;;;;23.30;12.10;;;;;;;;;;4957360;28;20027;-84
2021/12/11 14:38:48;;;;;;;21.58;12.98;;;;;;;;;;4960648;28;20027;-85
2021/12/11 14:41:14;;;;;;;22.63;13.05;;;;;;;;;;4959389;29;20402;-85
2021/12/11 14:43:41;;;;;;;21.52;12.65;;;;;;;;;;4958234;29;20119;-85
2021/12/11 14:46:19;;;;;;;21.77;13.02;;;;;;;;;;4956556;29;20487;-85
2021/12/11 14:48:48;;;;;;;25.08;14.35;;;;;;;;;;4963062;29;20027;-85
2021/12/11 14:51:16;;;;;;;20.80;12.23;;;;;;;;;;4961482;28;20095;-86
2021/12/11 14:53:43;;;;;;;21.58;12.05;;;;;;;;;;4958931;28;20105;-86
2021/12/11 14:56:43;;;;;;;20.63;12.63;;;;;;;;;;4961257;28;20020;-84